Time;durP1;ratioP1;P1;durP2;ratioP2;P2;SDS_P1;SDS_P2;PMS_P1;PMS_P2;Temp;Humidity;BMP_temperature;BMP_pressure;BME280_temperature;BME280_humidity;BME280_pressure;Samples;Min_cycle;Max_cycle;Signal;HPM_P1;HPM_P2
2022/07/21 00:00:30;;;;;;;;;;;;;;;15.69;86.85;91291.13;5012888;28;19944;-67
2022/07/21 00:02:56;;;;;;;;;;;;;;;15.69;86.42;91291.91;5012862;28;19917;-67
2022/07/21 00:05:22;;;;;;;;;;;;;;;15.69;86.05;91285.78;5012748;28;19914;-67
2022/07/21 00:07:48;;;;;;;;;;;;;;;15.75;85.67;91284.44;5012757;28;20296;-67
2022/07/21 00:10:14;;;;;;;;;;;;;;;15.72;85.67;91293.94;5012768;28;19920;-67
2022/07/21 00:12:39;;;;;;;;;;;;;;;15.60;86.59;91296.56;5012703;28;19952;-66
2022/07/21 00:15:06;;;;;;;;;;;;;;;15.54;87.71;91290.59;5012648;28;20421;-67
2022/07/21 00:17:31;;;;;;;;;;;;;;;15.46;88.41;91294.16;5012879;28;19914;-66
2022/07/21 00:19:57;;;;;;;;;;;;;;;15.40;89.15;91302.72;5012535;28;20394;-67
2022/07/21 00:22:22;;;;;;;;;;;;;;;15.34;90.18;91298.66;5012453;28;19917;-67
2022/07/21 00:24:47;;;;;;;;;;;;;;;15.33;90.34;91297.09;5012345;28;20043;-67
2022/07/21 00:27:13;;;;;;;;;;;;;;;15.32;90.36;91292.84;5012419;28;19918;-67
2022/07/21 00:29:38;;;;;;;;;;;;;;;15.33;90.62;91291.75;5012483;28;19956;-67
2022/07/21 00:32:05;;;;;;;;;;;;;;;15.29;90.64;91291.59;5012460;28;19917;-67
2022/07/21 00:34:31;;;;;;;;;;;;;;;15.23;91.03;91285.66;5012592;28;19920;-66
2022/07/21 00:36:57;;;;;;;;;;;;;;;15.22;90.83;91286.78;5012382;28;20015;-67
2022/07/21 00:39:22;;;;;;;;;;;;;;;15.20;90.78;91289.00;5012284;28;19921;-67
2022/07/21 00:41:47;;;;;;;;;;;;;;;15.16;90.99;91290.78;5012229;28;19913;-67
2022/07/21 00:44:20;;;;;;;;;;;;;;;15.16;91.33;91279.28;5011669;28;19913;-66
2022/07/21 00:46:45;;;;;;;;;;;;;;;15.15;91.01;91275.81;5012227;28;20457;-66
2022/07/21 00:49:10;;;;;;;;;;;;;;;15.12;91.15;91278.34;5012233;28;19913;-66
2022/07/21 00:51:36;;;;;;;;;;;;;;;15.13;91.01;91277.22;5012176;28;19917;-66
2022/07/21 00:54:01;;;;;;;;;;;;;;;15.16;90.76;91272.00;5011956;28;19920;-66
2022/07/21 00:56:26;;;;;;;;;;;;;;;15.17;90.24;91278.16;5012211;28;19913;-66
2022/07/21 00:58:52;;;;;;;;;;;;;;;15.13;90.54;91269.19;5011943;28;20390;-66
2022/07/21 01:01:17;;;;;;;;;;;;;;;15.13;90.50;91269.97;5012035;28;20063;-66
2022/07/21 01:03:42;;;;;;;;;;;;;;;15.13;90.44;91269.97;5011690;28;19951;-66
2022/07/21 01:06:08;;;;;;;;;;;;;;;15.12;90.31;91279.13;5011792;28;20336;-66
2022/07/21 01:08:33;;;;;;;;;;;;;;;15.11;90.19;91272.19;5011768;28;19924;-67
2022/07/21 01:10:58;;;;;;;;;;;;;;;15.15;89.32;91275.03;4993942;28;19917;-67
2022/07/21 01:13:25;;;;;;;;;;;;;;;15.20;88.59;91274.81;5011863;28;19921;-67
2022/07/21 01:15:51;;;;;;;;;;;;;;;15.19;88.37;91271.34;4993826;28;20284;-68
2022/07/21 01:18:16;;;;;;;;;;;;;;;15.15;89.18;91272.34;5011760;28;19964;-67
2022/07/21 01:20:44;;;;;;;;;;;;;;;15.06;90.36;91275.06;5011757;28;20292;-67
2022/07/21 01:23:10;;;;;;;;;;;;;;;15.05;90.84;91268.16;5011666;28;19920;-68
2022/07/21 01:25:35;;;;;;;;;;;;;;;15.01;91.24;91272.59;5011570;28;20011;-68
2022/07/21 01:28:00;;;;;;;;;;;;;;;15.03;91.48;91265.00;5011749;28;19925;-67
2022/07/21 01:30:26;;;;;;;;;;;;;;;15.02;91.32;91266.13;5011676;28;19929;-66
2022/07/21 01:32:51;;;;;;;;;;;;;;;14.97;91.87;91268.97;4993809;28;19917;-66
2022/07/21 01:35:17;;;;;;;;;;;;;;;14.88;92.95;91262.91;5011615;28;19917;-66
2022/07/21 01:37:43;;;;;;;;;;;;;;;14.85;93.41;91263.56;5011577;28;19929;-66
2022/07/21 01:42:53;;;;;;;;;;;;;;;14.79;94.07;91264.84;5011418;28;19924;-67
2022/07/21 01:45:19;;;;;;;;;;;;;;;14.79;93.82;91271.00;5011508;28;19921;-66
2022/07/21 01:47:45;;;;;;;;;;;;;;;14.75;94.50;91270.09;5011567;28;19917;-67
2022/07/21 01:50:10;;;;;;;;;;;;;;;14.70;94.90;91261.47;5011501;28;20371;-67
2022/07/21 01:52:36;;;;;;;;;;;;;;;14.67;94.94;91268.22;5011400;28;20450;-67
2022/07/21 01:55:01;;;;;;;;;;;;;;;14.68;95.43;91259.91;5011879;28;20311;-67
2022/07/21 01:57:26;;;;;;;;;;;;;;;14.67;94.85;91262.88;5015609;28;19945;-66
2022/07/21 01:59:52;;;;;;;;;;;;;;;14.67;95.02;91254.84;5015195;28;19924;-66
2022/07/21 02:04:52;;;;;;;;;;;;;;;14.66;94.54;91246.03;5013702;28;19928;-66
2022/07/21 02:07:17;;;;;;;;;;;;;;;14.74;93.66;91257.03;5015116;28;20008;-66
2022/07/21 02:09:43;;;;;;;;;;;;;;;14.78;92.94;91249.91;5015048;28;19917;-66
2022/07/21 02:12:08;;;;;;;;;;;;;;;14.79;92.94;91246.09;5014932;28;19920;-66
2022/07/21 02:14:34;;;;;;;;;;;;;;;14.81;92.83;91242.00;5014927;28;19917;-66
2022/07/21 02:16:59;;;;;;;;;;;;;;;14.82;92.32;91251.59;5014972;28;19921;-66
2022/07/21 02:19:24;;;;;;;;;;;;;;;14.82;92.35;91248.13;5014914;28;19913;-66
2022/07/21 02:21:49;;;;;;;;;;;;;;;14.82;92.48;91253.50;5014895;28;19963;-67
2022/07/21 02:24:15;;;;;;;;;;;;;;;14.79;92.71;91254.16;5014763;28;19917;-66
2022/07/21 02:26:40;;;;;;;;;;;;;;;14.78;92.58;91250.69;5014716;28;20006;-67
2022/07/21 02:29:06;;;;;;;;;;;;;;;14.83;91.97;91253.19;5014790;28;19917;-67
2022/07/21 02:31:31;;;;;;;;;;;;;;;14.85;91.76;91250.97;5014704;28;19914;-66
2022/07/21 02:33:56;;;;;;;;;;;;;;;14.79;92.13;91251.47;5014643;28;19917;-67
2022/07/21 02:36:22;;;;;;;;;;;;;;;14.79;92.65;91251.47;5014687;28;20462;-68
2022/07/21 02:38:47;;;;;;;;;;;;;;;14.72;93.12;91245.84;5014563;28;19920;-68
2022/07/21 02:41:12;;;;;;;;;;;;;;;14.61;94.30;91246.22;5014538;28;19995;-67
2022/07/21 02:43:38;;;;;;;;;;;;;;;14.56;94.78;91251.78;5014419;28;20000;-67
2022/07/21 02:46:03;;;;;;;;;;;;;;;14.52;95.30;91244.72;5014489;28;19951;-67
2022/07/21 02:48:28;;;;;;;;;;;;;;;14.49;95.28;91248.81;5014326;28;20362;-67
2022/07/21 02:50:54;;;;;;;;;;;;;;;14.51;95.25;91243.91;5014252;28;19917;-67
2022/07/21 02:53:22;;;;;;;;;;;;;;;14.53;95.06;91241.72;5014134;28;20016;-67
2022/07/21 02:55:48;;;;;;;;;;;;;;;14.58;94.33;91244.22;5014281;28;19913;-67
2022/07/21 02:58:24;;;;;;;;;;;;;;;14.64;93.42;91245.56;5014076;28;19913;-67
2022/07/21 03:00:50;;;;;;;;;;;;;;;14.67;92.97;91242.28;5014228;28;19925;-67
2022/07/21 03:03:16;;;;;;;;;;;;;;;14.78;92.07;91245.31;5013908;28;20322;-68
2022/07/21 03:05:41;;;;;;;;;;;;;;;14.83;91.36;91237.13;5013735;28;19936;-67
2022/07/21 03:08:08;;;;;;;;;;;;;;;14.92;90.10;91240.50;5013998;28;20349;-67
2022/07/21 03:10:33;;;;;;;;;;;;;;;14.93;89.60;91241.28;5014059;28;19913;-67
2022/07/21 03:12:59;;;;;;;;;;;;;;;15.00;89.02;91241.56;5013867;28;20064;-67
2022/07/21 03:15:25;;;;;;;;;;;;;;;14.96;88.96;91243.31;5013851;28;20008;-67
2022/07/21 03:17:51;;;;;;;;;;;;;;;14.93;89.27;91244.75;5013714;28;20398;-67
2022/07/21 03:20:16;;;;;;;;;;;;;;;14.97;88.80;91240.28;5013779;28;19917;-67
2022/07/21 03:22:41;;;;;;;;;;;;;;;15.01;88.17;91237.78;5013648;28;19999;-67
2022/07/21 03:25:07;;;;;;;;;;;;;;;14.96;88.20;91248.66;5013684;28;20008;-67
2022/07/21 03:27:35;;;;;;;;;;;;;;;14.82;90.04;91254.28;5013677;28;20453;-67
2022/07/21 03:30:05;;;;;;;;;;;;;;;14.72;91.58;91241.28;5013626;28;19920;-67
2022/07/21 03:32:30;;;;;;;;;;;;;;;14.66;92.54;91239.88;5013460;28;19944;-67
2022/07/21 03:34:56;;;;;;;;;;;;;;;14.66;92.81;91246.03;5013829;28;19917;-67
2022/07/21 03:37:21;;;;;;;;;;;;;;;14.72;92.90;91243.19;4995946;28;19919;-67
2022/07/21 03:39:47;;;;;;;;;;;;;;;14.66;93.40;91248.72;5013354;28;19913;-67
2022/07/21 03:42:12;;;;;;;;;;;;;;;14.67;93.33;91242.28;5013499;28;20009;-67
2022/07/21 03:44:37;;;;;;;;;;;;;;;14.67;94.04;91236.91;5013171;28;20379;-66
2022/07/21 03:47:03;;;;;;;;;;;;;;;14.64;94.31;91242.13;4995604;28;19921;-66
2022/07/21 03:49:28;;;;;;;;;;;;;;;14.72;94.14;91249.31;5013140;28;19920;-66
2022/07/21 03:51:54;;;;;;;;;;;;;;;14.74;94.04;91241.75;5013170;28;20319;-67
2022/07/21 03:54:19;;;;;;;;;;;;;;;14.70;94.22;91245.41;5012852;28;20336;-66
2022/07/21 03:56:44;;;;;;;;;;;;;;;14.68;95.00;91245.72;5013089;28;19967;-66
2022/07/21 03:59:10;;;;;;;;;;;;;;;14.63;95.92;91246.69;5013034;28;19915;-66
2022/07/21 04:01:35;;;;;;;;;;;;;;;14.65;96.22;91251.72;5013022;28;20291;-66
2022/07/21 04:04:00;;;;;;;;;;;;;;;14.71;96.02;91241.63;5012829;28;19968;-66
2022/07/21 04:06:25;;;;;;;;;;;;;;;14.86;94.91;91249.06;5012885;28;19917;-66
2022/07/21 04:08:51;;;;;;;;;;;;;;;14.91;94.23;91246.19;5012963;28;19921;-67
2022/07/21 04:11:16;;;;;;;;;;;;;;;15.00;93.38;91257.63;5012880;28;19924;-66
2022/07/21 04:13:42;;;;;;;;;;;;;;;15.11;93.08;91252.66;5012748;28;19914;-66
2022/07/21 04:16:07;;;;;;;;;;;;;;;15.20;92.38;91248.78;5012391;28;20399;-67
2022/07/21 04:18:32;;;;;;;;;;;;;;;15.39;91.28;91253.66;5011821;28;19957;-66
2022/07/21 04:20:57;;;;;;;;;;;;;;;15.53;89.50;91253.38;5012646;28;19920;-67
2022/07/21 04:23:23;;;;;;;;;;;;;;;15.64;88.75;91251.91;5012527;28;19999;-67
2022/07/21 04:25:48;;;;;;;;;;;;;;;15.83;87.45;91260.22;5012532;28;19955;-67
2022/07/21 04:28:13;;;;;;;;;;;;;;;15.87;87.08;91252.28;5012410;28;19971;-67
2022/07/21 04:30:39;;;;;;;;;;;;;;;15.99;86.35;91256.91;4994490;28;19917;-67
2022/07/21 04:33:06;;;;;;;;;;;;;;;16.10;85.32;91252.66;5012280;28;19979;-67
2022/07/21 04:35:31;;;;;;;;;;;;;;;16.21;84.52;91248.41;5012361;28;19913;-67
2022/07/21 04:37:57;;;;;;;;;;;;;;;16.38;83.22;91250.88;5012240;28;19948;-67
2022/07/21 04:40:22;;;;;;;;;;;;;;;16.55;82.19;91257.13;5012205;28;19955;-67
2022/07/21 04:42:47;;;;;;;;;;;;;;;16.64;80.39;91255.91;5012222;28;19986;-67
2022/07/21 04:45:13;;;;;;;;;;;;;;;16.77;79.81;91249.44;5012302;28;19948;-67
2022/07/21 04:47:46;;;;;;;;;;;;;;;16.86;80.08;91252.00;5012185;28;19918;-67
2022/07/21 04:50:11;;;;;;;;;;;;;;;16.95;80.16;91249.19;5012364;28;19913;-67
2022/07/21 04:52:37;;;;;;;;;;;;;;;17.10;78.91;91256.56;5011951;28;19976;-67
2022/07/21 04:55:02;;;;;;;;;;;;;;;17.26;78.06;91262.00;5012257;28;20491;-68
2022/07/21 04:57:28;;;;;;;;;;;;;;;17.44;77.58;91257.91;5011849;28;19921;-67
2022/07/21 04:59:53;;;;;;;;;;;;;;;17.58;76.32;91258.28;5011844;28;19913;-67
2022/07/21 05:02:18;;;;;;;;;;;;;;;17.79;74.62;91265.41;5011832;28;19927;-67
2022/07/21 05:04:43;;;;;;;;;;;;;;;17.95;74.03;91263.53;5011766;28;19953;-67
2022/07/21 05:07:09;;;;;;;;;;;;;;;18.08;72.81;91262.34;5011832;28;19918;-67
2022/07/21 05:09:35;;;;;;;;;;;;;;;18.21;71.36;91263.81;5011794;28;20296;-67
2022/07/21 05:12:00;;;;;;;;;;;;;;;18.31;70.85;91259.06;5011871;28;20306;-67
2022/07/21 05:14:25;;;;;;;;;;;;;;;18.48;70.71;91261.41;4993927;28;19913;-67
2022/07/21 05:16:50;;;;;;;;;;;;;;;18.73;69.08;91256.63;5011743;28;19913;-67
2022/07/21 05:19:16;;;;;;;;;;;;;;;18.96;67.61;91262.94;5011630;28;19917;-66
2022/07/21 05:21:41;;;;;;;;;;;;;;;19.24;66.33;91259.28;5011661;28;19913;-66
2022/07/21 05:24:07;;;;;;;;;;;;;;;19.53;65.71;91257.97;5011645;28;19920;-66
2022/07/21 05:26:32;;;;;;;;;;;;;;;19.63;64.20;91255.50;5011529;28;20310;-67
2022/07/21 05:28:57;;;;;;;;;;;;;;;19.81;63.81;91253.16;5011505;28;20059;-67
2022/07/21 05:31:23;;;;;;;;;;;;;;;20.06;62.59;91258.25;5011408;28;19913;-66
2022/07/21 05:33:48;;;;;;;;;;;;;;;20.17;61.95;91264.63;5011496;28;19935;-66
2022/07/21 05:36:13;;;;;;;;;;;;;;;20.45;61.13;91259.75;5011639;28;19924;-66
2022/07/21 05:38:39;;;;;;;;;;;;;;;21.36;59.68;91263.47;5011516;28;19921;-66
2022/07/21 05:41:04;;;;;;;;;;;;;;;24.62;51.78;91259.06;5011546;28;19917;-66
2022/07/21 05:43:30;;;;;;;;;;;;;;;27.72;45.23;91250.38;5011465;28;19922;-66
2022/07/21 05:45:56;;;;;;;;;;;;;;;30.03;39.70;91259.97;5011585;28;20491;-66
2022/07/21 05:48:21;;;;;;;;;;;;;;;31.75;36.44;91265.31;5011519;28;19913;-66
2022/07/21 05:50:47;;;;;;;;;;;;;;;32.78;34.86;91262.47;5011536;28;19913;-66
2022/07/21 05:53:12;;;;;;;;;;;;;;;33.89;33.35;91257.09;5011748;28;19914;-66
2022/07/21 05:55:38;;;;;;;;;;;;;;;34.89;31.84;91261.88;5011410;28;19914;-66
2022/07/21 05:58:03;;;;;;;;;;;;;;;35.72;31.10;91259.00;5011364;28;19913;-66
2022/07/21 06:00:28;;;;;;;;;;;;;;;36.93;29.67;91261.41;5011358;28;19921;-66
2022/07/21 06:02:53;;;;;;;;;;;;;;;38.33;28.86;91270.22;5011046;28;20387;-66
2022/07/21 06:05:19;;;;;;;;;;;;;;;38.77;27.21;91267.56;5011338;28;19924;-66
2022/07/21 06:07:44;;;;;;;;;;;;;;;38.95;26.79;91253.47;5011330;28;19918;-66
2022/07/21 06:10:10;;;;;;;;;;;;;;;39.58;27.51;91264.41;5011641;28;19913;-64
2022/07/21 06:12:35;;;;;;;;;;;;;;;40.14;26.54;91264.50;5011224;28;20084;-66
2022/07/21 06:15:00;;;;;;;;;;;;;;;41.07;26.13;91262.56;4993655;28;19988;-66
2022/07/21 06:17:26;;;;;;;;;;;;;;;41.21;25.33;91261.69;5011370;28;19917;-66
2022/07/21 06:19:51;;;;;;;;;;;;;;;41.98;25.42;91265.59;5011120;28;20526;-66
2022/07/21 06:22:16;;;;;;;;;;;;;;;43.40;24.60;91258.06;5011152;28;19921;-66
2022/07/21 06:24:42;;;;;;;;;;;;;;;42.56;23.65;91260.63;5011216;28;20007;-66
2022/07/21 06:27:07;;;;;;;;;;;;;;;42.96;23.68;91256.72;5011409;28;19913;-66
2022/07/21 06:29:34;;;;;;;;;;;;;;;43.98;23.25;91252.72;5011378;28;20272;-66
2022/07/21 06:31:59;;;;;;;;;;;;;;;44.36;22.13;91257.50;4993279;28;20296;-66
2022/07/21 06:34:24;;;;;;;;;;;;;;;44.63;22.35;91260.72;5010884;28;19919;-65
2022/07/21 06:36:50;;;;;;;;;;;;;;;43.45;22.94;91252.47;5010931;28;19914;-66
2022/07/21 06:39:15;;;;;;;;;;;;;;;43.32;22.85;91252.97;5010847;28;19920;-66
2022/07/21 06:41:40;;;;;;;;;;;;;;;43.19;23.42;91255.47;5012368;28;19913;-65
2022/07/21 06:44:06;;;;;;;;;;;;;;;43.31;23.43;91257.03;5014757;28;19913;-65
2022/07/21 06:46:32;;;;;;;;;;;;;;;44.08;22.92;91254.75;5014475;28;20414;-66
2022/07/21 06:48:57;;;;;;;;;;;;;;;44.29;23.11;91251.66;5014370;28;19917;-66
2022/07/21 06:51:22;;;;;;;;;;;;;;;43.99;22.94;91252.19;5014391;28;19914;-66
2022/07/21 06:53:48;;;;;;;;;;;;;;;42.32;24.81;91250.59;5014246;28;19920;-66
2022/07/21 06:56:13;;;;;;;;;;;;;;;43.30;24.16;91252.72;5014506;28;19917;-65
2022/07/21 06:58:38;;;;;;;;;;;;;;;43.58;23.24;91246.38;5014368;28;19918;-65
2022/07/21 07:01:04;;;;;;;;;;;;;;;40.84;25.55;91253.19;5014225;28;20503;-65
2022/07/21 07:03:29;;;;;;;;;;;;;;;40.63;24.72;91247.63;5013943;28;19917;-64
2022/07/21 07:05:55;;;;;;;;;;;;;;;40.67;25.12;91247.41;5013972;28;20319;-64
2022/07/21 07:08:20;;;;;;;;;;;;;;;41.28;25.38;91241.72;5013898;28;20384;-64
2022/07/21 07:10:48;;;;;;;;;;;;;;;39.61;26.09;91249.56;5014017;28;20402;-64
2022/07/21 07:13:15;;;;;;;;;;;;;;;39.39;25.90;91240.81;5013929;28;19913;-64
2022/07/21 07:15:40;;;;;;;;;;;;;;;40.85;24.69;91246.34;5013889;28;20391;-65
2022/07/21 07:18:06;;;;;;;;;;;;;;;40.94;25.04;91243.41;5013782;28;19921;-64
2022/07/21 07:20:31;;;;;;;;;;;;;;;41.44;25.05;91238.28;5013811;28;19972;-64
2022/07/21 07:22:56;;;;;;;;;;;;;;;41.10;24.08;91248.38;5013684;28;20318;-64
2022/07/21 07:25:22;;;;;;;;;;;;;;;41.62;23.14;91241.97;5013734;28;19913;-64
2022/07/21 07:27:49;;;;;;;;;;;;;;;43.88;22.20;91238.22;5013894;28;19992;-65
2022/07/21 07:30:14;;;;;;;;;;;;;;;42.28;23.48;91236.06;5013663;28;19917;-64
2022/07/21 07:32:40;;;;;;;;;;;;;;;42.06;24.00;91224.75;5013541;28;19913;-65
2022/07/21 07:35:06;;;;;;;;;;;;;;;42.79;22.73;91227.88;5013453;28;20401;-65
2022/07/21 07:37:33;;;;;;;;;;;;;;;42.91;23.67;91230.22;5013412;28;19972;-63
2022/07/21 07:39:59;;;;;;;;;;;;;;;45.88;21.65;91232.91;5013496;28;20334;-63
2022/07/21 07:42:24;;;;;;;;;;;;;;;46.10;20.94;91223.53;5013587;28;19921;-63
2022/07/21 07:44:49;;;;;;;;;;;;;;;45.10;22.19;91231.41;5013452;28;19920;-64
2022/07/21 07:47:15;;;;;;;;;;;;;;;41.31;23.43;91226.00;5013411;28;20506;-64
2022/07/21 07:49:40;;;;;;;;;;;;;;;43.15;22.85;91224.16;5013300;28;19914;-64
2022/07/21 07:52:05;;;;;;;;;;;;;;;43.66;23.39;91221.38;5012791;28;19920;-64
2022/07/21 07:54:31;;;;;;;;;;;;;;;45.28;22.18;91223.66;5012509;28;19914;-65
2022/07/21 07:56:56;;;;;;;;;;;;;;;41.87;23.70;91218.81;5013273;28;19917;-66
2022/07/21 07:59:21;;;;;;;;;;;;;;;42.17;23.93;91217.22;5013104;28;19972;-65
2022/07/21 08:01:47;;;;;;;;;;;;;;;43.35;24.45;91211.97;5011806;28;19976;-66
2022/07/21 08:04:14;;;;;;;;;;;;;;;44.53;22.36;91220.22;5012829;28;19917;-65
2022/07/21 08:06:39;;;;;;;;;;;;;;;44.70;21.75;91227.28;5012932;28;19923;-65
2022/07/21 08:09:04;;;;;;;;;;;;;;;42.67;24.16;91216.66;5012516;28;19922;-65
2022/07/21 08:11:30;;;;;;;;;;;;;;;42.20;23.59;91223.84;5012792;28;19917;-65
2022/07/21 08:13:55;;;;;;;;;;;;;;;42.83;23.49;91223.56;5012328;28;19924;-65
2022/07/21 08:16:21;;;;;;;;;;;;;;;43.88;23.88;91221.38;5012716;28;19932;-65
2022/07/21 08:18:46;;;;;;;;;;;;;;;42.76;23.63;91212.84;5012282;28;19922;-65
2022/07/21 08:21:11;;;;;;;;;;;;;;;42.70;23.45;91214.88;5012621;28;20032;-65
2022/07/21 08:23:37;;;;;;;;;;;;;;;42.54;23.21;91207.97;5012410;28;19924;-65
2022/07/21 08:26:02;;;;;;;;;;;;;;;43.10;22.87;91212.97;5012731;28;19913;-65
2022/07/21 08:28:28;;;;;;;;;;;;;;;44.42;22.46;91206.97;5011609;28;20418;-66
2022/07/21 08:30:53;;;;;;;;;;;;;;;44.94;22.02;91203.44;5016963;28;19990;-67
2022/07/21 08:33:19;;;;;;;;;;;;;;;43.81;22.67;91196.66;4991515;28;19917;-67
2022/07/21 08:35:44;;;;;;;;;;;;;;;41.69;24.59;91197.63;4991836;28;19917;-66
2022/07/21 08:38:11;;;;;;;;;;;;;;;43.14;23.55;91197.44;5004203;28;20318;-67
2022/07/21 08:40:45;;;;;;;;;;;;;;;43.82;23.08;91198.19;5012257;28;19968;-67
2022/07/21 08:43:12;;;;;;;;;;;;;;;42.95;23.00;91194.38;5011096;28;20458;-66
2022/07/21 08:45:38;;;;;;;;;;;;;;;43.36;22.74;91196.69;5011650;28;19965;-67
2022/07/21 08:48:04;;;;;;;;;;;;;;;42.91;22.69;91191.03;5011991;28;19960;-67
2022/07/21 08:50:31;;;;;;;;;;;;;;;41.82;23.72;91197.16;5010812;28;19925;-67
2022/07/21 08:52:56;;;;;;;;;;;;;;;41.77;23.62;91190.28;5011719;28;20480;-67
2022/07/21 08:55:22;;;;;;;;;;;;;;;41.71;23.28;91194.31;5011700;28;19938;-67
2022/07/21 08:57:47;;;;;;;;;;;;;;;40.59;24.87;91193.31;5011060;28;19960;-67
2022/07/21 09:00:13;;;;;;;;;;;;;;;40.83;23.87;91190.28;5011585;28;19917;-67
2022/07/21 09:02:38;;;;;;;;;;;;;;;40.95;23.19;91192.69;5010979;28;19917;-67
2022/07/21 09:05:07;;;;;;;;;;;;;;;39.47;24.94;91187.03;5010799;28;19925;-66
2022/07/21 09:07:53;;;;;;;;;;;;;;;39.29;24.93;91192.06;5011251;28;19932;-66
2022/07/21 09:10:23;;;;;;;;;;;;;;;40.28;22.39;91193.97;4993483;28;19917;-66
2022/07/21 09:12:50;;;;;;;;;;;;;;;40.73;22.87;91194.47;5010842;28;19917;-67
2022/07/21 09:15:18;;;;;;;;;;;;;;;41.80;22.60;91191.31;5011010;28;19925;-67
2022/07/21 09:17:44;;;;;;;;;;;;;;;43.18;22.42;91185.97;5011058;28;20447;-67
2022/07/21 09:20:20;;;;;;;;;;;;;;;42.96;21.73;91192.31;5010966;28;20008;-67
2022/07/21 09:23:00;;;;;;;;;;;;;;;41.45;23.50;91195.13;5010059;28;19921;-67
2022/07/21 09:25:36;;;;;;;;;;;;;;;41.95;22.29;91191.91;5000629;28;20471;-66
2022/07/21 09:28:12;;;;;;;;;;;;;;;40.78;23.41;91188.19;5010491;28;19913;-66
2022/07/21 09:30:55;;;;;;;;;;;;;;;42.28;22.38;91185.72;5011142;28;20007;-66
2022/07/21 09:33:32;;;;;;;;;;;;;;;40.25;24.23;91186.59;5010858;28;19919;-65
2022/07/21 09:36:00;;;;;;;;;;;;;;;40.11;24.57;91180.59;5010908;28;20446;-66
2022/07/21 09:38:26;;;;;;;;;;;;;;;39.73;24.53;91180.81;5011271;28;19956;-66
2022/07/21 09:40:51;;;;;;;;;;;;;;;36.60;27.09;91176.09;5011147;28;20318;-65
2022/07/21 09:43:29;;;;;;;;;;;;;;;36.07;28.73;91174.91;5011223;28;20028;-65
2022/07/21 09:45:55;;;;;;;;;;;;;;;38.30;26.10;91169.09;5011325;28;19957;-65
2022/07/21 09:48:36;;;;;;;;;;;;;;;39.03;25.20;91180.75;5010527;28;19960;-66
2022/07/21 09:51:21;;;;;;;;;;;;;;;39.67;24.50;91177.97;5008926;28;19920;-66
2022/07/21 09:53:54;;;;;;;;;;;;;;;39.82;23.87;91180.69;5011263;28;20047;-65
2022/07/21 09:56:20;;;;;;;;;;;;;;;39.82;23.95;91177.91;5010241;28;19921;-65
2022/07/21 09:58:47;;;;;;;;;;;;;;;41.15;23.51;91177.88;5011541;28;19920;-65
2022/07/21 10:01:13;;;;;;;;;;;;;;;41.17;23.22;91178.13;5011315;28;19914;-65
2022/07/21 10:03:38;;;;;;;;;;;;;;;41.26;23.18;91157.69;5011004;28;19937;-66
2022/07/21 10:06:04;;;;;;;;;;;;;;;38.87;24.78;91165.31;5011623;28;19917;-65
2022/07/21 10:08:30;;;;;;;;;;;;;;;38.04;25.98;91171.63;5011540;28;19924;-65
2022/07/21 10:10:55;;;;;;;;;;;;;;;38.85;24.62;91171.38;5011289;28;19920;-65
2022/07/21 10:13:21;;;;;;;;;;;;;;;38.23;25.47;91171.50;5011321;28;19917;-65
2022/07/21 10:15:46;;;;;;;;;;;;;;;39.77;25.59;91171.03;5011254;28;20263;-65
2022/07/21 10:18:13;;;;;;;;;;;;;;;40.47;23.94;91158.97;5014795;28;19917;-65
2022/07/21 10:20:40;;;;;;;;;;;;;;;40.11;25.11;91166.66;5014950;28;20004;-65
2022/07/21 10:23:16;;;;;;;;;;;;;;;40.78;23.69;91154.69;4997190;28;20417;-65
2022/07/21 10:25:43;;;;;;;;;;;;;;;40.45;24.23;91166.28;5015210;28;19917;-65
2022/07/21 10:28:17;;;;;;;;;;;;;;;39.33;24.78;91157.22;5014812;28;19928;-64
2022/07/21 10:31:05;;;;;;;;;;;;;;;41.71;22.83;91155.97;5014876;28;19913;-65
2022/07/21 10:34:00;;;;;;;;;;;;;;;37.43;25.83;91150.88;5013385;28;20280;-65
2022/07/21 10:36:26;;;;;;;;;;;;;;;39.47;25.64;91153.63;5001688;28;19913;-65
2022/07/21 10:39:17;;;;;;;;;;;;;;;39.20;25.53;91151.97;5014514;28;19967;-65
2022/07/21 10:41:42;;;;;;;;;;;;;;;38.77;25.37;91153.50;5014385;28;19975;-66
2022/07/21 10:44:26;;;;;;;;;;;;;;;38.17;25.97;91140.78;5014488;28;20303;-65
2022/07/21 10:46:58;;;;;;;;;;;;;;;37.79;26.29;91143.56;5014409;28;19963;-65
2022/07/21 10:49:40;;;;;;;;;;;;;;;39.12;26.61;91147.25;5014492;28;19913;-67
2022/07/21 10:52:25;;;;;;;;;;;;;;;39.58;24.27;91149.47;5014368;28;20387;-65
2022/07/21 10:55:09;;;;;;;;;;;;;;;40.66;24.73;91142.66;5014410;28;19913;-66
2022/07/21 10:57:35;;;;;;;;;;;;;;;41.55;23.76;91145.44;5014326;28;19980;-67
2022/07/21 11:00:18;;;;;;;;;;;;;;;40.52;23.88;91135.94;5014299;28;19914;-67
2022/07/21 11:02:48;;;;;;;;;;;;;;;39.44;25.31;91132.28;5014431;28;19935;-64
2022/07/21 11:05:14;;;;;;;;;;;;;;;40.11;24.24;91133.22;5014005;28;19913;-65
2022/07/21 11:07:57;;;;;;;;;;;;;;;39.87;24.83;91129.84;5014114;28;19924;-66
2022/07/21 11:10:24;;;;;;;;;;;;;;;38.49;25.36;91122.41;5014050;28;19920;-64
2022/07/21 11:12:56;;;;;;;;;;;;;;;38.06;26.21;91126.69;5014058;28;19968;-66
2022/07/21 11:15:40;;;;;;;;;;;;;;;37.99;25.37;91124.25;4996445;28;19913;-66
2022/07/21 11:18:07;;;;;;;;;;;;;;;38.76;25.57;91118.59;5013919;28;19967;-66
2022/07/21 11:20:32;;;;;;;;;;;;;;;38.68;25.64;91123.03;5013512;28;19948;-66
2022/07/21 11:23:02;;;;;;;;;;;;;;;39.85;24.86;91118.44;5013771;28;20019;-66
2022/07/21 11:25:33;;;;;;;;;;;;;;;40.19;24.21;91116.03;5013687;28;19961;-65
2022/07/21 11:27:58;;;;;;;;;;;;;;;41.65;22.89;91110.44;5013347;28;19921;-66
2022/07/21 11:30:23;;;;;;;;;;;;;;;41.05;23.13;91106.75;5013611;28;19917;-66
2022/07/21 11:32:49;;;;;;;;;;;;;;;40.63;23.12;91110.19;5013480;28;19917;-66
2022/07/21 11:35:14;;;;;;;;;;;;;;;38.79;24.67;91112.06;5013445;28;20453;-66
2022/07/21 11:37:41;;;;;;;;;;;;;;;39.29;25.41;91106.53;5013382;28;19913;-65
2022/07/21 11:40:13;;;;;;;;;;;;;;;39.24;24.48;91101.66;5013369;28;19917;-65
2022/07/21 11:42:39;;;;;;;;;;;;;;;38.92;24.74;91103.44;5013259;28;19913;-66
2022/07/21 11:45:05;;;;;;;;;;;;;;;38.56;25.06;91093.47;5013298;28;19921;-66
2022/07/21 11:47:31;;;;;;;;;;;;;;;39.07;24.24;91103.41;5013009;28;19936;-66
2022/07/21 11:49:57;;;;;;;;;;;;;;;39.35;24.66;91107.38;5013169;28;20356;-66
2022/07/21 11:52:26;;;;;;;;;;;;;;;40.08;24.19;91100.75;5012887;28;19913;-66
2022/07/21 11:54:53;;;;;;;;;;;;;;;38.84;24.07;91096.75;5013052;28;20376;-66
2022/07/21 11:57:18;;;;;;;;;;;;;;;38.85;23.70;91099.03;5013032;28;20465;-66
2022/07/21 11:59:44;;;;;;;;;;;;;;;39.23;25.13;91092.53;5012864;28;19988;-66
2022/07/21 12:02:10;;;;;;;;;;;;;;;36.40;27.18;91095.47;5013101;28;19923;-66
2022/07/21 12:04:39;;;;;;;;;;;;;;;38.65;26.11;91090.59;5012590;28;19956;-65
2022/07/21 12:07:05;;;;;;;;;;;;;;;40.23;23.88;91088.72;5012581;28;19952;-66
2022/07/21 12:09:31;;;;;;;;;;;;;;;38.43;24.84;91088.22;4995184;28;19960;-66
2022/07/21 12:11:57;;;;;;;;;;;;;;;38.11;26.47;91092.66;5012415;28;19928;-66
2022/07/21 12:14:38;;;;;;;;;;;;;;;37.31;25.91;91085.25;5012489;28;19917;-65
2022/07/21 12:17:03;;;;;;;;;;;;;;;38.08;25.46;91082.50;5010591;28;20002;-66
2022/07/21 12:19:28;;;;;;;;;;;;;;;38.02;25.42;91081.63;5012283;28;19918;-66
2022/07/21 12:21:54;;;;;;;;;;;;;;;37.95;24.67;91084.78;5021619;28;20007;-64
2022/07/21 12:24:20;;;;;;;;;;;;;;;37.83;25.57;91083.03;5022684;28;19928;-65
2022/07/21 12:26:45;;;;;;;;;;;;;;;38.12;25.35;91077.53;5017070;28;19924;-64
2022/07/21 12:29:24;;;;;;;;;;;;;;;38.41;25.02;91076.03;5027176;28;19939;-64
2022/07/21 12:31:49;;;;;;;;;;;;;;;39.64;24.80;91072.34;5017754;28;19921;-65
2022/07/21 12:34:15;;;;;;;;;;;;;;;38.41;25.43;91070.47;5028359;28;19978;-64
2022/07/21 12:36:42;;;;;;;;;;;;;;;38.83;24.58;91068.16;5017567;28;19913;-65
2022/07/21 12:39:55;;;;;;;;;;;;;;;37.69;25.93;91051.19;5012413;28;19924;-64
2022/07/21 12:42:00;;;;;;;;;;;;;;;37.92;26.90;91060.75;5015371;28;20008;-66
2022/07/21 12:44:25;;;;;;;;;;;;;;;36.72;28.26;91054.41;5009237;28;20386;-70
2022/07/21 12:46:50;;;;;;;;;;;;;;;36.57;29.50;91059.84;5010312;28;20315;-67
2022/07/21 12:49:16;;;;;;;;;;;;;;;38.11;26.49;91055.78;5012494;28;20307;-66
2022/07/21 12:51:44;;;;;;;;;;;;;;;38.82;26.93;91061.06;5022879;28;19913;-67